sensor_id;sensor_type;location;lat;lon;timestamp;P1;durP1;ratioP1;P2;durP2;ratioP2
21862;SDS011;11096;51.338;12.524;2022-08-25T00:00:45;15.82;;;10.18;;
21862;SDS011;11096;51.338;12.524;2022-08-25T00:03:12;13.98;;;9.85;;
21862;SDS011;11096;51.338;12.524;2022-08-25T00:05:38;12.73;;;9.23;;
21862;SDS011;11096;51.338;12.524;2022-08-25T00:08:04;14.10;;;9.20;;
21862;SDS011;11096;51.338;12.524;2022-08-25T00:10:31;18.67;;;9.75;;
21862;SDS011;11096;51.338;12.524;2022-08-25T00:12:58;13.60;;;9.45;;
21862;SDS011;11096;51.338;12.524;2022-08-25T00:15:24;16.67;;;10.10;;
21862;SDS011;11096;51.338;12.524;2022-08-25T00:17:50;15.75;;;9.70;;
21862;SDS011;11096;51.338;12.524;2022-08-25T00:20:16;15.38;;;10.45;;
21862;SDS011;11096;51.338;12.524;2022-08-25T00:22:41;12.18;;;9.23;;
21862;SDS011;11096;51.338;12.524;2022-08-25T00:25:07;14.75;;;10.27;;
21862;SDS011;11096;51.338;12.524;2022-08-25T00:27:34;14.40;;;10.07;;
21862;SDS011;11096;51.338;12.524;2022-08-25T00:29:59;14.98;;;10.25;;
21862;SDS011;11096;51.338;12.524;2022-08-25T00:32:25;18.42;;;10.88;;
21862;SDS011;11096;51.338;12.524;2022-08-25T00:34:51;15.88;;;10.95;;
21862;SDS011;11096;51.338;12.524;2022-08-25T00:37:17;16.67;;;11.70;;
21862;SDS011;11096;51.338;12.524;2022-08-25T00:39:43;20.73;;;11.32;;
21862;SDS011;11096;51.338;12.524;2022-08-25T00:42:08;18.80;;;10.38;;
21862;SDS011;11096;51.338;12.524;2022-08-25T00:44:40;24.63;;;12.73;;
21862;SDS011;11096;51.338;12.524;2022-08-25T00:47:08;19.45;;;13.23;;
21862;SDS011;11096;51.338;12.524;2022-08-25T00:49:52;20.92;;;12.50;;
21862;SDS011;11096;51.338;12.524;2022-08-25T00:52:24;21.02;;;13.57;;
21862;SDS011;11096;51.338;12.524;2022-08-25T00:55:06;20.33;;;13.15;;
21862;SDS011;11096;51.338;12.524;2022-08-25T00:57:54;19.08;;;12.50;;
21862;SDS011;11096;51.338;12.524;2022-08-25T01:02:49;18.35;;;11.82;;
21862;SDS011;11096;51.338;12.524;2022-08-25T01:05:15;17.40;;;12.05;;
21862;SDS011;11096;51.338;12.524;2022-08-25T01:07:42;19.85;;;12.68;;
21862;SDS011;11096;51.338;12.524;2022-08-25T01:10:08;19.55;;;12.70;;
21862;SDS011;11096;51.338;12.524;2022-08-25T01:12:36;18.60;;;12.45;;
21862;SDS011;11096;51.338;12.524;2022-08-25T01:15:03;17.63;;;12.52;;
21862;SDS011;11096;51.338;12.524;2022-08-25T01:17:34;20.92;;;12.52;;
21862;SDS011;11096;51.338;12.524;2022-08-25T01:20:10;19.15;;;12.18;;
21862;SDS011;11096;51.338;12.524;2022-08-25T01:22:37;20.73;;;12.55;;
21862;SDS011;11096;51.338;12.524;2022-08-25T01:25:04;19.25;;;12.70;;
21862;SDS011;11096;51.338;12.524;2022-08-25T01:27:47;18.42;;;12.35;;
21862;SDS011;11096;51.338;12.524;2022-08-25T01:30:12;21.95;;;12.73;;
21862;SDS011;11096;51.338;12.524;2022-08-25T01:32:38;20.33;;;13.68;;
21862;SDS011;11096;51.338;12.524;2022-08-25T01:35:04;20.45;;;12.57;;
21862;SDS011;11096;51.338;12.524;2022-08-25T01:37:30;17.80;;;12.93;;
21862;SDS011;11096;51.338;12.524;2022-08-25T01:39:59;20.67;;;12.75;;
21862;SDS011;11096;51.338;12.524;2022-08-25T01:45:27;16.30;;;12.23;;
21862;SDS011;11096;51.338;12.524;2022-08-25T01:47:53;18.67;;;12.98;;
21862;SDS011;11096;51.338;12.524;2022-08-25T01:50:18;17.65;;;12.50;;
21862;SDS011;11096;51.338;12.524;2022-08-25T01:52:46;15.85;;;12.35;;
21862;SDS011;11096;51.338;12.524;2022-08-25T01:55:18;18.38;;;12.68;;
21862;SDS011;11096;51.338;12.524;2022-08-25T01:57:43;16.70;;;13.07;;
21862;SDS011;11096;51.338;12.524;2022-08-25T02:00:09;20.15;;;13.57;;
21862;SDS011;11096;51.338;12.524;2022-08-25T02:02:38;23.63;;;14.32;;
21862;SDS011;11096;51.338;12.524;2022-08-25T02:05:05;23.20;;;13.27;;
21862;SDS011;11096;51.338;12.524;2022-08-25T02:07:31;20.77;;;12.93;;
21862;SDS011;11096;51.338;12.524;2022-08-25T02:09:57;19.85;;;13.27;;
21862;SDS011;11096;51.338;12.524;2022-08-25T02:12:23;19.38;;;12.82;;
21862;SDS011;11096;51.338;12.524;2022-08-25T02:14:49;18.42;;;12.90;;
21862;SDS011;11096;51.338;12.524;2022-08-25T02:17:14;18.95;;;13.10;;
21862;SDS011;11096;51.338;12.524;2022-08-25T02:19:41;15.52;;;11.68;;
21862;SDS011;11096;51.338;12.524;2022-08-25T02:22:06;18.20;;;12.82;;
21862;SDS011;11096;51.338;12.524;2022-08-25T02:24:32;20.75;;;13.63;;
21862;SDS011;11096;51.338;12.524;2022-08-25T02:26:58;18.63;;;13.90;;
21862;SDS011;11096;51.338;12.524;2022-08-25T02:29:24;20.65;;;13.43;;
21862;SDS011;11096;51.338;12.524;2022-08-25T02:31:50;19.17;;;13.45;;
21862;SDS011;11096;51.338;12.524;2022-08-25T02:34:15;18.25;;;14.35;;
21862;SDS011;11096;51.338;12.524;2022-08-25T02:36:41;18.70;;;13.93;;
21862;SDS011;11096;51.338;12.524;2022-08-25T02:39:07;19.63;;;14.88;;
21862;SDS011;11096;51.338;12.524;2022-08-25T02:41:34;21.27;;;14.68;;
21862;SDS011;11096;51.338;12.524;2022-08-25T02:44:01;23.92;;;15.68;;
21862;SDS011;11096;51.338;12.524;2022-08-25T02:46:28;22.90;;;15.52;;
21862;SDS011;11096;51.338;12.524;2022-08-25T02:48:53;20.80;;;14.13;;
21862;SDS011;11096;51.338;12.524;2022-08-25T02:51:20;24.83;;;16.00;;
21862;SDS011;11096;51.338;12.524;2022-08-25T02:53:47;24.33;;;15.60;;
21862;SDS011;11096;51.338;12.524;2022-08-25T02:56:13;22.20;;;15.32;;
21862;SDS011;11096;51.338;12.524;2022-08-25T02:58:40;19.50;;;15.15;;
21862;SDS011;11096;51.338;12.524;2022-08-25T03:01:06;28.35;;;16.48;;
21862;SDS011;11096;51.338;12.524;2022-08-25T03:03:36;23.02;;;14.85;;
21862;SDS011;11096;51.338;12.524;2022-08-25T03:06:04;20.48;;;15.00;;
21862;SDS011;11096;51.338;12.524;2022-08-25T03:08:31;20.88;;;14.93;;
21862;SDS011;11096;51.338;12.524;2022-08-25T03:10:56;23.52;;;12.77;;
21862;SDS011;11096;51.338;12.524;2022-08-25T03:13:21;16.02;;;13.80;;
21862;SDS011;11096;51.338;12.524;2022-08-25T03:15:47;20.27;;;14.85;;
21862;SDS011;11096;51.338;12.524;2022-08-25T03:18:13;21.40;;;13.68;;
21862;SDS011;11096;51.338;12.524;2022-08-25T03:20:39;23.67;;;12.93;;
21862;SDS011;11096;51.338;12.524;2022-08-25T03:23:05;20.02;;;12.65;;
21862;SDS011;11096;51.338;12.524;2022-08-25T03:25:30;16.17;;;11.98;;
21862;SDS011;11096;51.338;12.524;2022-08-25T03:28:15;13.70;;;10.85;;
21862;SDS011;11096;51.338;12.524;2022-08-25T03:30:40;14.32;;;11.82;;
21862;SDS011;11096;51.338;12.524;2022-08-25T03:33:07;16.75;;;12.10;;
21862;SDS011;11096;51.338;12.524;2022-08-25T03:35:33;19.83;;;12.70;;
21862;SDS011;11096;51.338;12.524;2022-08-25T03:37:58;17.23;;;12.25;;
21862;SDS011;11096;51.338;12.524;2022-08-25T03:40:24;16.98;;;12.63;;
21862;SDS011;11096;51.338;12.524;2022-08-25T03:42:50;20.08;;;13.02;;
21862;SDS011;11096;51.338;12.524;2022-08-25T03:45:16;19.42;;;13.43;;
21862;SDS011;11096;51.338;12.524;2022-08-25T03:47:44;19.83;;;13.23;;
21862;SDS011;11096;51.338;12.524;2022-08-25T03:50:12;21.13;;;14.52;;
21862;SDS011;11096;51.338;12.524;2022-08-25T03:52:38;19.65;;;13.90;;
21862;SDS011;11096;51.338;12.524;2022-08-25T03:55:04;16.23;;;13.13;;
21862;SDS011;11096;51.338;12.524;2022-08-25T03:57:32;19.95;;;14.25;;
21862;SDS011;11096;51.338;12.524;2022-08-25T03:59:57;18.42;;;13.40;;
21862;SDS011;11096;51.338;12.524;2022-08-25T04:02:22;19.98;;;14.63;;
21862;SDS011;11096;51.338;12.524;2022-08-25T04:04:48;20.02;;;13.32;;
21862;SDS011;11096;51.338;12.524;2022-08-25T04:07:14;18.67;;;12.73;;
21862;SDS011;11096;51.338;12.524;2022-08-25T04:09:39;19.08;;;12.88;;
21862;SDS011;11096;51.338;12.524;2022-08-25T04:12:05;17.65;;;12.35;;
21862;SDS011;11096;51.338;12.524;2022-08-25T04:14:30;17.50;;;12.73;;
21862;SDS011;11096;51.338;12.524;2022-08-25T04:16:56;18.23;;;12.35;;
21862;SDS011;11096;51.338;12.524;2022-08-25T04:19:21;19.02;;;13.55;;
21862;SDS011;11096;51.338;12.524;2022-08-25T04:21:47;17.70;;;12.85;;
21862;SDS011;11096;51.338;12.524;2022-08-25T04:24:13;18.55;;;12.93;;
21862;SDS011;11096;51.338;12.524;2022-08-25T04:26:40;20.17;;;13.35;;
21862;SDS011;11096;51.338;12.524;2022-08-25T04:29:09;19.23;;;13.20;;
21862;SDS011;11096;51.338;12.524;2022-08-25T04:31:37;20.20;;;14.38;;
21862;SDS011;11096;51.338;12.524;2022-08-25T04:34:04;16.92;;;12.77;;
21862;SDS011;11096;51.338;12.524;2022-08-25T04:36:31;20.42;;;13.82;;
21862;SDS011;11096;51.338;12.524;2022-08-25T04:38:57;23.83;;;13.68;;
21862;SDS011;11096;51.338;12.524;2022-08-25T04:41:23;19.65;;;13.73;;
21862;SDS011;11096;51.338;12.524;2022-08-25T04:43:49;19.23;;;13.88;;
21862;SDS011;11096;51.338;12.524;2022-08-25T04:46:16;17.40;;;13.73;;
21862;SDS011;11096;51.338;12.524;2022-08-25T04:48:47;16.92;;;13.13;;
21862;SDS011;11096;51.338;12.524;2022-08-25T04:51:15;18.98;;;14.55;;
21862;SDS011;11096;51.338;12.524;2022-08-25T04:53:47;18.42;;;13.63;;
21862;SDS011;11096;51.338;12.524;2022-08-25T04:56:14;20.58;;;14.18;;
21862;SDS011;11096;51.338;12.524;2022-08-25T04:58:42;19.58;;;14.00;;
21862;SDS011;11096;51.338;12.524;2022-08-25T05:01:09;18.27;;;14.32;;
21862;SDS011;11096;51.338;12.524;2022-08-25T05:03:39;20.55;;;13.98;;
21862;SDS011;11096;51.338;12.524;2022-08-25T05:06:05;19.75;;;13.65;;
21862;SDS011;11096;51.338;12.524;2022-08-25T05:08:31;22.50;;;15.13;;
21862;SDS011;11096;51.338;12.524;2022-08-25T05:10:57;17.77;;;13.63;;
21862;SDS011;11096;51.338;12.524;2022-08-25T05:13:24;18.23;;;13.57;;
21862;SDS011;11096;51.338;12.524;2022-08-25T05:15:54;21.35;;;14.48;;
21862;SDS011;11096;51.338;12.524;2022-08-25T05:18:21;17.40;;;13.23;;
21862;SDS011;11096;51.338;12.524;2022-08-25T05:20:49;17.55;;;12.82;;
21862;SDS011;11096;51.338;12.524;2022-08-25T05:23:17;18.77;;;14.13;;
21862;SDS011;11096;51.338;12.524;2022-08-25T05:25:43;18.00;;;13.75;;
21862;SDS011;11096;51.338;12.524;2022-08-25T05:28:09;18.80;;;12.95;;
21862;SDS011;11096;51.338;12.524;2022-08-25T05:30:38;22.08;;;13.25;;
21862;SDS011;11096;51.338;12.524;2022-08-25T05:33:05;18.73;;;13.77;;
21862;SDS011;11096;51.338;12.524;2022-08-25T05:35:31;19.60;;;13.98;;
21862;SDS011;11096;51.338;12.524;2022-08-25T05:37:56;17.98;;;13.40;;
21862;SDS011;11096;51.338;12.524;2022-08-25T05:40:22;18.85;;;13.45;;
21862;SDS011;11096;51.338;12.524;2022-08-25T05:42:48;18.30;;;13.27;;
21862;SDS011;11096;51.338;12.524;2022-08-25T05:45:14;18.88;;;13.40;;
21862;SDS011;11096;51.338;12.524;2022-08-25T05:47:39;23.15;;;13.90;;
21862;SDS011;11096;51.338;12.524;2022-08-25T05:50:05;20.73;;;13.68;;
21862;SDS011;11096;51.338;12.524;2022-08-25T05:52:31;20.92;;;12.65;;
21862;SDS011;11096;51.338;12.524;2022-08-25T05:54:57;22.27;;;13.75;;
21862;SDS011;11096;51.338;12.524;2022-08-25T05:57:22;18.20;;;13.20;;
21862;SDS011;11096;51.338;12.524;2022-08-25T05:59:48;19.63;;;13.25;;
21862;SDS011;11096;51.338;12.524;2022-08-25T06:02:13;19.30;;;13.48;;
21862;SDS011;11096;51.338;12.524;2022-08-25T06:04:57;21.50;;;14.55;;
21862;SDS011;11096;51.338;12.524;2022-08-25T06:07:22;17.65;;;13.57;;
21862;SDS011;11096;51.338;12.524;2022-08-25T06:09:48;19.00;;;13.88;;
21862;SDS011;11096;51.338;12.524;2022-08-25T06:12:14;17.45;;;12.90;;
21862;SDS011;11096;51.338;12.524;2022-08-25T06:14:40;19.15;;;13.48;;
21862;SDS011;11096;51.338;12.524;2022-08-25T06:17:06;18.33;;;14.13;;
21862;SDS011;11096;51.338;12.524;2022-08-25T06:19:32;19.48;;;13.45;;
21862;SDS011;11096;51.338;12.524;2022-08-25T06:21:57;18.48;;;13.85;;
21862;SDS011;11096;51.338;12.524;2022-08-25T06:24:23;17.70;;;12.73;;
21862;SDS011;11096;51.338;12.524;2022-08-25T06:26:50;22.25;;;13.23;;
21862;SDS011;11096;51.338;12.524;2022-08-25T06:29:16;18.20;;;13.93;;
21862;SDS011;11096;51.338;12.524;2022-08-25T06:31:42;18.83;;;13.10;;
21862;SDS011;11096;51.338;12.524;2022-08-25T06:34:08;25.02;;;14.32;;
21862;SDS011;11096;51.338;12.524;2022-08-25T06:36:34;23.35;;;13.10;;
21862;SDS011;11096;51.338;12.524;2022-08-25T06:38:59;18.55;;;13.02;;
21862;SDS011;11096;51.338;12.524;2022-08-25T06:41:24;20.83;;;13.57;;
21862;SDS011;11096;51.338;12.524;2022-08-25T06:43:50;19.15;;;13.40;;
21862;SDS011;11096;51.338;12.524;2022-08-25T06:46:25;19.75;;;13.00;;
21862;SDS011;11096;51.338;12.524;2022-08-25T06:48:53;17.75;;;13.32;;
21862;SDS011;11096;51.338;12.524;2022-08-25T06:51:19;19.40;;;12.60;;
21862;SDS011;11096;51.338;12.524;2022-08-25T06:53:46;19.52;;;12.90;;
21862;SDS011;11096;51.338;12.524;2022-08-25T06:56:13;18.67;;;12.18;;
21862;SDS011;11096;51.338;12.524;2022-08-25T06:58:40;18.77;;;13.18;;
21862;SDS011;11096;51.338;12.524;2022-08-25T07:01:09;19.30;;;12.55;;
21862;SDS011;11096;51.338;12.524;2022-08-25T07:03:44;16.88;;;12.73;;
21862;SDS011;11096;51.338;12.524;2022-08-25T07:06:09;17.23;;;13.57;;
21862;SDS011;11096;51.338;12.524;2022-08-25T07:08:34;17.92;;;12.98;;
21862;SDS011;11096;51.338;12.524;2022-08-25T07:11:07;18.05;;;13.63;;
21862;SDS011;11096;51.338;12.524;2022-08-25T07:13:34;17.98;;;12.70;;
21862;SDS011;11096;51.338;12.524;2022-08-25T07:16:01;19.58;;;13.07;;
21862;SDS011;11096;51.338;12.524;2022-08-25T07:18:28;19.50;;;12.48;;
21862;SDS011;11096;51.338;12.524;2022-08-25T07:20:54;20.65;;;13.30;;
21862;SDS011;11096;51.338;12.524;2022-08-25T07:23:21;16.10;;;11.93;;
21862;SDS011;11096;51.338;12.524;2022-08-25T07:25:47;18.55;;;12.23;;
21862;SDS011;11096;51.338;12.524;2022-08-25T07:28:13;17.10;;;11.60;;
21862;SDS011;11096;51.338;12.524;2022-08-25T07:30:39;12.80;;;11.00;;
21862;SDS011;11096;51.338;12.524;2022-08-25T07:33:05;13.75;;;11.05;;
21862;SDS011;11096;51.338;12.524;2022-08-25T07:35:30;16.33;;;11.15;;
21862;SDS011;11096;51.338;12.524;2022-08-25T07:37:56;15.25;;;10.82;;
21862;SDS011;11096;51.338;12.524;2022-08-25T07:40:30;17.80;;;11.43;;
21862;SDS011;11096;51.338;12.524;2022-08-25T07:42:57;15.32;;;10.85;;
21862;SDS011;11096;51.338;12.524;2022-08-25T07:45:26;17.15;;;10.70;;
21862;SDS011;11096;51.338;12.524;2022-08-25T07:48:00;14.55;;;10.38;;
21862;SDS011;11096;51.338;12.524;2022-08-25T07:50:29;17.05;;;11.77;;
21862;SDS011;11096;51.338;12.524;2022-08-25T07:52:56;14.75;;;9.63;;
21862;SDS011;11096;51.338;12.524;2022-08-25T07:55:23;14.48;;;10.57;;
21862;SDS011;11096;51.338;12.524;2022-08-25T07:57:49;14.50;;;10.40;;
21862;SDS011;11096;51.338;12.524;2022-08-25T08:00:16;15.82;;;10.52;;
21862;SDS011;11096;51.338;12.524;2022-08-25T08:02:42;15.82;;;9.70;;
21862;SDS011;11096;51.338;12.524;2022-08-25T08:05:08;15.90;;;9.80;;
21862;SDS011;11096;51.338;12.524;2022-08-25T08:07:35;13.10;;;9.80;;
21862;SDS011;11096;51.338;12.524;2022-08-25T08:10:01;12.13;;;9.30;;
21862;SDS011;11096;51.338;12.524;2022-08-25T08:12:27;13.20;;;9.57;;
21862;SDS011;11096;51.338;12.524;2022-08-25T08:14:53;14.63;;;9.90;;
21862;SDS011;11096;51.338;12.524;2022-08-25T08:17:19;19.33;;;11.93;;
21862;SDS011;11096;51.338;12.524;2022-08-25T08:19:45;14.00;;;10.27;;
21862;SDS011;11096;51.338;12.524;2022-08-25T08:22:11;11.75;;;8.50;;
21862;SDS011;11096;51.338;12.524;2022-08-25T08:24:39;13.57;;;9.52;;
21862;SDS011;11096;51.338;12.524;2022-08-25T08:27:07;13.30;;;9.40;;
21862;SDS011;11096;51.338;12.524;2022-08-25T08:29:33;12.85;;;9.55;;
21862;SDS011;11096;51.338;12.524;2022-08-25T08:31:59;17.88;;;9.77;;
21862;SDS011;11096;51.338;12.524;2022-08-25T08:34:25;16.27;;;9.25;;
21862;SDS011;11096;51.338;12.524;2022-08-25T08:36:51;18.30;;;8.35;;
21862;SDS011;11096;51.338;12.524;2022-08-25T08:39:17;13.25;;;8.70;;
21862;SDS011;11096;51.338;12.524;2022-08-25T08:50:00;10.57;;;8.00;;
21862;SDS011;11096;51.338;12.524;2022-08-25T08:52:39;11.90;;;8.25;;
21862;SDS011;11096;51.338;12.524;2022-08-25T08:55:10;14.48;;;7.60;;
21862;SDS011;11096;51.338;12.524;2022-08-25T08:57:45;15.93;;;7.57;;
21862;SDS011;11096;51.338;12.524;2022-08-25T09:00:13;16.48;;;8.52;;
21862;SDS011;11096;51.338;12.524;2022-08-25T09:02:41;12.85;;;7.90;;
21862;SDS011;11096;51.338;12.524;2022-08-25T09:05:14;14.02;;;7.28;;
21862;SDS011;11096;51.338;12.524;2022-08-25T09:07:45;11.27;;;6.93;;
21862;SDS011;11096;51.338;12.524;2022-08-25T09:10:12;12.73;;;8.30;;
21862;SDS011;11096;51.338;12.524;2022-08-25T09:12:42;14.38;;;7.80;;
21862;SDS011;11096;51.338;12.524;2022-08-25T09:21:00;14.02;;;7.72;;
21862;SDS011;11096;51.338;12.524;2022-08-25T09:29:07;13.73;;;7.47;;
21862;SDS011;11096;51.338;12.524;2022-08-25T09:31:38;14.90;;;7.35;;
21862;SDS011;11096;51.338;12.524;2022-08-25T09:34:27;12.98;;;7.20;;
21862;SDS011;11096;51.338;12.524;2022-08-25T09:36:55;12.82;;;7.82;;
21862;SDS011;11096;51.338;12.524;2022-08-25T09:39:21;18.80;;;8.40;;
21862;SDS011;11096;51.338;12.524;2022-08-25T09:41:48;12.00;;;6.80;;
21862;SDS011;11096;51.338;12.524;2022-08-25T09:46:57;12.40;;;7.13;;
21862;SDS011;11096;51.338;12.524;2022-08-25T09:54:42;12.63;;;6.53;;
21862;SDS011;11096;51.338;12.524;2022-08-25T09:57:08;18.50;;;6.85;;
21862;SDS011;11096;51.338;12.524;2022-08-25T10:00:12;14.00;;;6.85;;
21862;SDS011;11096;51.338;12.524;2022-08-25T10:02:43;9.00;;;6.00;;
21862;SDS011;11096;51.338;12.524;2022-08-25T10:05:24;10.05;;;6.88;;
21862;SDS011;11096;51.338;12.524;2022-08-25T10:07:54;14.07;;;6.75;;
21862;SDS011;11096;51.338;12.524;2022-08-25T10:10:26;17.83;;;7.38;;
21862;SDS011;11096;51.338;12.524;2022-08-25T10:12:57;15.10;;;7.38;;
21862;SDS011;11096;51.338;12.524;2022-08-25T10:18:20;13.38;;;7.03;;
21862;SDS011;11096;51.338;12.524;2022-08-25T10:21:09;13.75;;;7.05;;
21862;SDS011;11096;51.338;12.524;2022-08-25T10:23:49;12.32;;;6.40;;
21862;SDS011;11096;51.338;12.524;2022-08-25T10:26:21;11.52;;;6.88;;
21862;SDS011;11096;51.338;12.524;2022-08-25T10:28:58;13.80;;;6.65;;
21862;SDS011;11096;51.338;12.524;2022-08-25T10:31:36;12.32;;;6.50;;
21862;SDS011;11096;51.338;12.524;2022-08-25T10:34:29;16.80;;;6.55;;
21862;SDS011;11096;51.338;12.524;2022-08-25T10:37:04;11.13;;;5.68;;
21862;SDS011;11096;51.338;12.524;2022-08-25T10:39:37;15.57;;;5.88;;
21862;SDS011;11096;51.338;12.524;2022-08-25T10:48:06;13.27;;;5.68;;
21862;SDS011;11096;51.338;12.524;2022-08-25T10:51:20;14.68;;;5.68;;
21862;SDS011;11096;51.338;12.524;2022-08-25T10:53:56;14.50;;;5.88;;
21862;SDS011;11096;51.338;12.524;2022-08-25T10:56:33;14.48;;;5.88;;
21862;SDS011;11096;51.338;12.524;2022-08-25T11:04:28;16.38;;;6.20;;
21862;SDS011;11096;51.338;12.524;2022-08-25T11:07:07;14.68;;;5.15;;
21862;SDS011;11096;51.338;12.524;2022-08-25T11:09:37;11.57;;;6.20;;
21862;SDS011;11096;51.338;12.524;2022-08-25T11:14:53;21.05;;;5.82;;
21862;SDS011;11096;51.338;12.524;2022-08-25T11:17:23;20.85;;;5.88;;
21862;SDS011;11096;51.338;12.524;2022-08-25T11:19:51;18.83;;;5.78;;
21862;SDS011;11096;51.338;12.524;2022-08-25T11:27:54;18.33;;;6.18;;
21862;SDS011;11096;51.338;12.524;2022-08-25T11:30:34;16.67;;;6.93;;
21862;SDS011;11096;51.338;12.524;2022-08-25T11:33:02;16.20;;;6.05;;
21862;SDS011;11096;51.338;12.524;2022-08-25T11:35:34;18.92;;;6.38;;
21862;SDS011;11096;51.338;12.524;2022-08-25T11:38:10;14.13;;;5.55;;
21862;SDS011;11096;51.338;12.524;2022-08-25T11:51:11;19.07;;;6.70;;
21862;SDS011;11096;51.338;12.524;2022-08-25T11:56:51;12.88;;;5.80;;
21862;SDS011;11096;51.338;12.524;2022-08-25T12:10:57;17.20;;;5.75;;
21862;SDS011;11096;51.338;12.524;2022-08-25T12:16:07;16.60;;;5.30;;
21862;SDS011;11096;51.338;12.524;2022-08-25T12:29:54;14.20;;;4.72;;
21862;SDS011;11096;51.338;12.524;2022-08-25T12:37:57;22.35;;;5.40;;
21862;SDS011;11096;51.338;12.524;2022-08-25T12:45:45;13.37;;;4.43;;
21862;SDS011;11096;51.338;12.524;2022-08-25T12:50:56;17.05;;;5.88;;
21862;SDS011;11096;51.338;12.524;2022-08-25T12:58:34;17.30;;;4.18;;
21862;SDS011;11096;51.338;12.524;2022-08-25T13:01:14;14.07;;;4.97;;
21862;SDS011;11096;51.338;12.524;2022-08-25T13:15:05;20.60;;;6.45;;
21862;SDS011;11096;51.338;12.524;2022-08-25T13:17:37;12.27;;;4.57;;
21862;SDS011;11096;51.338;12.524;2022-08-25T13:20:21;18.45;;;4.82;;
21862;SDS011;11096;51.338;12.524;2022-08-25T13:22:49;15.02;;;5.45;;
21862;SDS011;11096;51.338;12.524;2022-08-25T13:25:19;16.58;;;5.00;;
21862;SDS011;11096;51.338;12.524;2022-08-25T13:27:50;14.52;;;5.47;;
21862;SDS011;11096;51.338;12.524;2022-08-25T13:30:24;14.90;;;5.22;;
21862;SDS011;11096;51.338;12.524;2022-08-25T13:32:52;18.90;;;5.85;;
21862;SDS011;11096;51.338;12.524;2022-08-25T13:35:20;17.23;;;5.57;;
21862;SDS011;11096;51.338;12.524;2022-08-25T13:37:51;17.70;;;5.53;;
21862;SDS011;11096;51.338;12.524;2022-08-25T13:40:27;14.52;;;5.10;;
21862;SDS011;11096;51.338;12.524;2022-08-25T13:42:58;18.75;;;5.22;;
21862;SDS011;11096;51.338;12.524;2022-08-25T13:45:27;17.65;;;4.82;;
21862;SDS011;11096;51.338;12.524;2022-08-25T13:47:54;14.73;;;5.40;;
21862;SDS011;11096;51.338;12.524;2022-08-25T13:53:02;15.32;;;5.15;;
21862;SDS011;11096;51.338;12.524;2022-08-25T13:55:40;15.52;;;5.13;;
21862;SDS011;11096;51.338;12.524;2022-08-25T13:58:14;14.23;;;4.90;;
21862;SDS011;11096;51.338;12.524;2022-08-25T14:00:44;20.15;;;5.07;;
21862;SDS011;11096;51.338;12.524;2022-08-25T14:03:29;15.77;;;5.80;;
21862;SDS011;11096;51.338;12.524;2022-08-25T14:06:06;18.83;;;5.15;;
21862;SDS011;11096;51.338;12.524;2022-08-25T14:09:03;19.70;;;5.85;;
21862;SDS011;11096;51.338;12.524;2022-08-25T14:11:47;16.63;;;5.03;;
21862;SDS011;11096;51.338;12.524;2022-08-25T14:16:52;18.05;;;5.97;;
21862;SDS011;11096;51.338;12.524;2022-08-25T14:19:23;19.23;;;5.32;;
21862;SDS011;11096;51.338;12.524;2022-08-25T14:21:50;18.48;;;5.00;;
21862;SDS011;11096;51.338;12.524;2022-08-25T14:24:17;20.17;;;5.13;;
21862;SDS011;11096;51.338;12.524;2022-08-25T14:26:45;19.45;;;5.43;;
21862;SDS011;11096;51.338;12.524;2022-08-25T14:29:11;19.48;;;5.20;;
21862;SDS011;11096;51.338;12.524;2022-08-25T14:31:38;17.95;;;5.40;;
21862;SDS011;11096;51.338;12.524;2022-08-25T14:34:14;20.13;;;5.35;;
21862;SDS011;11096;51.338;12.524;2022-08-25T14:36:41;16.55;;;5.18;;
21862;SDS011;11096;51.338;12.524;2022-08-25T14:39:08;16.00;;;5.05;;
21862;SDS011;11096;51.338;12.524;2022-08-25T14:41:36;18.10;;;5.07;;
21862;SDS011;11096;51.338;12.524;2022-08-25T14:44:03;21.98;;;5.28;;
21862;SDS011;11096;51.338;12.524;2022-08-25T14:46:30;17.15;;;4.82;;
21862;SDS011;11096;51.338;12.524;2022-08-25T14:48:58;15.75;;;4.93;;
21862;SDS011;11096;51.338;12.524;2022-08-25T14:51:26;22.13;;;5.45;;
21862;SDS011;11096;51.338;12.524;2022-08-25T14:53:55;21.27;;;5.38;;
21862;SDS011;11096;51.338;12.524;2022-08-25T14:56:23;21.13;;;5.07;;
21862;SDS011;11096;51.338;12.524;2022-08-25T14:58:48;14.57;;;5.38;;
21862;SDS011;11096;51.338;12.524;2022-08-25T15:01:14;21.27;;;4.97;;
21862;SDS011;11096;51.338;12.524;2022-08-25T15:03:42;12.55;;;5.00;;
21862;SDS011;11096;51.338;12.524;2022-08-25T15:06:11;20.65;;;5.35;;
21862;SDS011;11096;51.338;12.524;2022-08-25T15:08:38;20.13;;;5.13;;
21862;SDS011;11096;51.338;12.524;2022-08-25T15:11:23;10.73;;;4.97;;
21862;SDS011;11096;51.338;12.524;2022-08-25T15:13:48;19.95;;;5.47;;
21862;SDS011;11096;51.338;12.524;2022-08-25T15:16:14;15.88;;;5.05;;
21862;SDS011;11096;51.338;12.524;2022-08-25T15:18:48;14.85;;;5.07;;
21862;SDS011;11096;51.338;12.524;2022-08-25T15:21:14;15.63;;;5.03;;
21862;SDS011;11096;51.338;12.524;2022-08-25T15:23:39;11.77;;;5.05;;
21862;SDS011;11096;51.338;12.524;2022-08-25T15:26:04;21.17;;;5.30;;
21862;SDS011;11096;51.338;12.524;2022-08-25T15:28:34;19.33;;;5.10;;
21862;SDS011;11096;51.338;12.524;2022-08-25T15:30:59;13.93;;;5.85;;
21862;SDS011;11096;51.338;12.524;2022-08-25T15:33:25;10.75;;;5.15;;
21862;SDS011;11096;51.338;12.524;2022-08-25T15:35:50;11.95;;;5.43;;
21862;SDS011;11096;51.338;12.524;2022-08-25T15:38:16;16.45;;;5.70;;
21862;SDS011;11096;51.338;12.524;2022-08-25T15:40:42;18.75;;;5.63;;
21862;SDS011;11096;51.338;12.524;2022-08-25T15:43:08;16.30;;;5.47;;
21862;SDS011;11096;51.338;12.524;2022-08-25T15:45:33;19.80;;;5.65;;
21862;SDS011;11096;51.338;12.524;2022-08-25T15:47:59;9.68;;;4.97;;
21862;SDS011;11096;51.338;12.524;2022-08-25T15:50:25;12.70;;;5.25;;
21862;SDS011;11096;51.338;12.524;2022-08-25T15:52:50;21.00;;;6.13;;
21862;SDS011;11096;51.338;12.524;2022-08-25T15:55:16;18.17;;;5.88;;
21862;SDS011;11096;51.338;12.524;2022-08-25T15:57:42;16.00;;;6.60;;
21862;SDS011;11096;51.338;12.524;2022-08-25T16:00:09;10.60;;;5.50;;
21862;SDS011;11096;51.338;12.524;2022-08-25T16:02:36;11.00;;;5.20;;
21862;SDS011;11096;51.338;12.524;2022-08-25T16:05:03;14.10;;;5.97;;
21862;SDS011;11096;51.338;12.524;2022-08-25T16:07:30;17.05;;;5.68;;
21862;SDS011;11096;51.338;12.524;2022-08-25T16:09:55;16.65;;;5.53;;
21862;SDS011;11096;51.338;12.524;2022-08-25T16:12:21;18.73;;;6.13;;
21862;SDS011;11096;51.338;12.524;2022-08-25T16:14:48;19.73;;;6.57;;
21862;SDS011;11096;51.338;12.524;2022-08-25T16:17:14;18.42;;;6.25;;
21862;SDS011;11096;51.338;12.524;2022-08-25T16:19:40;13.55;;;6.00;;
21862;SDS011;11096;51.338;12.524;2022-08-25T16:22:05;13.70;;;5.82;;
21862;SDS011;11096;51.338;12.524;2022-08-25T16:24:31;16.33;;;6.35;;
21862;SDS011;11096;51.338;12.524;2022-08-25T16:26:56;15.40;;;5.75;;
21862;SDS011;11096;51.338;12.524;2022-08-25T16:29:29;12.23;;;5.80;;
21862;SDS011;11096;51.338;12.524;2022-08-25T16:32:02;20.17;;;5.47;;